sensor_id;sensor_type;location;lat;lon;timestamp;P1;durP1;ratioP1;P2;durP2;ratioP2
82244;SDS011;71849;50.096;14.458;2023-08-06T00:02:01;10.98;;;5.93;;
82244;SDS011;71849;50.096;14.458;2023-08-06T00:04:26;9.35;;;5.20;;
82244;SDS011;71849;50.096;14.458;2023-08-06T00:06:52;8.80;;;4.93;;
82244;SDS011;71849;50.096;14.458;2023-08-06T00:09:17;10.25;;;5.85;;
82244;SDS011;71849;50.096;14.458;2023-08-06T00:11:43;9.18;;;5.55;;
82244;SDS011;71849;50.096;14.458;2023-08-06T00:14:09;8.80;;;5.55;;
82244;SDS011;71849;50.096;14.458;2023-08-06T00:16:34;11.00;;;5.38;;
82244;SDS011;71849;50.096;14.458;2023-08-06T00:19:00;9.45;;;5.25;;
82244;SDS011;71849;50.096;14.458;2023-08-06T00:21:25;8.07;;;5.00;;
82244;SDS011;71849;50.096;14.458;2023-08-06T00:23:51;9.52;;;5.25;;
82244;SDS011;71849;50.096;14.458;2023-08-06T00:26:17;11.32;;;5.65;;
82244;SDS011;71849;50.096;14.458;2023-08-06T00:28:42;9.32;;;5.57;;
82244;SDS011;71849;50.096;14.458;2023-08-06T00:31:11;9.23;;;5.13;;
82244;SDS011;71849;50.096;14.458;2023-08-06T00:33:36;8.45;;;5.18;;
82244;SDS011;71849;50.096;14.458;2023-08-06T00:36:02;8.68;;;5.20;;
82244;SDS011;71849;50.096;14.458;2023-08-06T00:38:30;8.30;;;5.45;;
82244;SDS011;71849;50.096;14.458;2023-08-06T00:40:56;7.97;;;4.85;;
82244;SDS011;71849;50.096;14.458;2023-08-06T00:43:21;8.63;;;4.83;;
82244;SDS011;71849;50.096;14.458;2023-08-06T00:45:46;10.30;;;4.90;;
82244;SDS011;71849;50.096;14.458;2023-08-06T00:48:12;9.18;;;5.15;;
82244;SDS011;71849;50.096;14.458;2023-08-06T00:50:38;8.68;;;4.40;;
82244;SDS011;71849;50.096;14.458;2023-08-06T00:53:03;8.32;;;4.57;;
82244;SDS011;71849;50.096;14.458;2023-08-06T00:55:29;8.27;;;4.68;;
82244;SDS011;71849;50.096;14.458;2023-08-06T00:57:54;8.27;;;5.07;;
82244;SDS011;71849;50.096;14.458;2023-08-06T01:00:21;7.15;;;4.50;;
82244;SDS011;71849;50.096;14.458;2023-08-06T01:02:48;9.35;;;5.00;;
82244;SDS011;71849;50.096;14.458;2023-08-06T01:05:13;9.20;;;4.75;;
82244;SDS011;71849;50.096;14.458;2023-08-06T01:18:42;6.78;;;3.70;;
82244;SDS011;71849;50.096;14.458;2023-08-06T01:21:11;7.40;;;3.58;;
82244;SDS011;71849;50.096;14.458;2023-08-06T01:23:37;6.50;;;3.83;;
82244;SDS011;71849;50.096;14.458;2023-08-06T01:32:10;7.20;;;3.70;;
82244;SDS011;71849;50.096;14.458;2023-08-06T01:34:38;6.68;;;4.00;;
82244;SDS011;71849;50.096;14.458;2023-08-06T01:37:06;7.60;;;4.25;;
82244;SDS011;71849;50.096;14.458;2023-08-06T01:39:35;7.03;;;4.15;;
82244;SDS011;71849;50.096;14.458;2023-08-06T01:42:01;8.80;;;3.97;;
82244;SDS011;71849;50.096;14.458;2023-08-06T01:44:26;7.72;;;4.43;;
82244;SDS011;71849;50.096;14.458;2023-08-06T01:46:52;7.90;;;4.50;;
82244;SDS011;71849;50.096;14.458;2023-08-06T01:49:17;8.27;;;4.32;;
82244;SDS011;71849;50.096;14.458;2023-08-06T01:51:42;7.85;;;4.40;;
82244;SDS011;71849;50.096;14.458;2023-08-06T01:54:08;9.48;;;4.60;;
82244;SDS011;71849;50.096;14.458;2023-08-06T01:56:33;8.68;;;4.28;;
82244;SDS011;71849;50.096;14.458;2023-08-06T01:58:59;7.18;;;3.67;;
82244;SDS011;71849;50.096;14.458;2023-08-06T02:01:24;8.23;;;4.10;;
82244;SDS011;71849;50.096;14.458;2023-08-06T02:03:50;8.13;;;3.92;;
82244;SDS011;71849;50.096;14.458;2023-08-06T02:06:18;8.52;;;3.65;;
82244;SDS011;71849;50.096;14.458;2023-08-06T02:08:46;7.40;;;3.92;;
82244;SDS011;71849;50.096;14.458;2023-08-06T02:11:12;8.40;;;4.00;;
82244;SDS011;71849;50.096;14.458;2023-08-06T02:13:37;6.55;;;3.60;;
82244;SDS011;71849;50.096;14.458;2023-08-06T02:16:14;8.65;;;4.25;;
82244;SDS011;71849;50.096;14.458;2023-08-06T02:18:39;7.38;;;3.67;;
82244;SDS011;71849;50.096;14.458;2023-08-06T02:21:06;7.57;;;3.70;;
82244;SDS011;71849;50.096;14.458;2023-08-06T02:23:31;6.97;;;4.30;;
82244;SDS011;71849;50.096;14.458;2023-08-06T02:26:00;6.95;;;4.10;;
82244;SDS011;71849;50.096;14.458;2023-08-06T02:28:27;10.95;;;4.07;;
82244;SDS011;71849;50.096;14.458;2023-08-06T02:30:53;7.60;;;3.83;;
82244;SDS011;71849;50.096;14.458;2023-08-06T02:33:19;8.95;;;3.92;;
82244;SDS011;71849;50.096;14.458;2023-08-06T02:35:44;6.85;;;3.88;;
82244;SDS011;71849;50.096;14.458;2023-08-06T02:38:10;7.85;;;4.10;;
82244;SDS011;71849;50.096;14.458;2023-08-06T02:40:35;7.10;;;4.25;;
82244;SDS011;71849;50.096;14.458;2023-08-06T02:43:00;7.80;;;4.45;;
82244;SDS011;71849;50.096;14.458;2023-08-06T02:45:26;6.55;;;3.47;;
82244;SDS011;71849;50.096;14.458;2023-08-06T02:47:51;7.93;;;3.90;;
82244;SDS011;71849;50.096;14.458;2023-08-06T02:50:16;7.13;;;3.60;;
82244;SDS011;71849;50.096;14.458;2023-08-06T02:52:42;8.00;;;4.20;;
82244;SDS011;71849;50.096;14.458;2023-08-06T02:55:07;7.75;;;3.88;;
82244;SDS011;71849;50.096;14.458;2023-08-06T02:57:33;7.13;;;4.55;;
82244;SDS011;71849;50.096;14.458;2023-08-06T02:59:58;7.78;;;4.13;;
82244;SDS011;71849;50.096;14.458;2023-08-06T03:02:24;8.10;;;4.10;;
82244;SDS011;71849;50.096;14.458;2023-08-06T03:04:49;8.10;;;4.15;;
82244;SDS011;71849;50.096;14.458;2023-08-06T03:07:14;7.35;;;4.25;;
82244;SDS011;71849;50.096;14.458;2023-08-06T03:09:40;7.72;;;4.13;;
82244;SDS011;71849;50.096;14.458;2023-08-06T03:12:05;7.70;;;3.95;;
82244;SDS011;71849;50.096;14.458;2023-08-06T03:14:31;7.47;;;3.80;;
82244;SDS011;71849;50.096;14.458;2023-08-06T03:16:56;5.85;;;3.40;;
82244;SDS011;71849;50.096;14.458;2023-08-06T03:19:22;6.38;;;3.72;;
82244;SDS011;71849;50.096;14.458;2023-08-06T03:21:47;6.95;;;3.70;;
82244;SDS011;71849;50.096;14.458;2023-08-06T03:24:13;8.32;;;4.50;;
82244;SDS011;71849;50.096;14.458;2023-08-06T03:26:39;6.40;;;3.63;;
82244;SDS011;71849;50.096;14.458;2023-08-06T03:29:04;6.57;;;3.58;;
82244;SDS011;71849;50.096;14.458;2023-08-06T03:31:30;6.40;;;3.65;;
82244;SDS011;71849;50.096;14.458;2023-08-06T03:33:55;7.25;;;3.70;;
82244;SDS011;71849;50.096;14.458;2023-08-06T03:36:21;7.20;;;3.97;;
82244;SDS011;71849;50.096;14.458;2023-08-06T03:38:47;8.00;;;4.22;;
82244;SDS011;71849;50.096;14.458;2023-08-06T03:41:13;7.47;;;3.90;;
82244;SDS011;71849;50.096;14.458;2023-08-06T03:43:38;7.10;;;3.60;;
82244;SDS011;71849;50.096;14.458;2023-08-06T03:46:03;6.75;;;3.60;;
82244;SDS011;71849;50.096;14.458;2023-08-06T03:48:29;7.68;;;3.85;;
82244;SDS011;71849;50.096;14.458;2023-08-06T03:50:54;6.35;;;3.60;;
82244;SDS011;71849;50.096;14.458;2023-08-06T03:53:20;6.68;;;3.30;;
82244;SDS011;71849;50.096;14.458;2023-08-06T03:55:45;5.60;;;2.97;;
82244;SDS011;71849;50.096;14.458;2023-08-06T03:58:10;6.10;;;3.28;;
82244;SDS011;71849;50.096;14.458;2023-08-06T04:00:36;7.13;;;3.70;;
82244;SDS011;71849;50.096;14.458;2023-08-06T04:03:01;7.68;;;3.47;;
82244;SDS011;71849;50.096;14.458;2023-08-06T04:05:27;6.30;;;3.60;;
82244;SDS011;71849;50.096;14.458;2023-08-06T04:07:52;6.53;;;3.30;;
82244;SDS011;71849;50.096;14.458;2023-08-06T04:10:19;6.45;;;3.65;;
82244;SDS011;71849;50.096;14.458;2023-08-06T04:12:45;6.43;;;3.53;;
82244;SDS011;71849;50.096;14.458;2023-08-06T04:15:10;5.97;;;3.10;;
82244;SDS011;71849;50.096;14.458;2023-08-06T04:17:36;7.38;;;3.08;;
82244;SDS011;71849;50.096;14.458;2023-08-06T04:20:01;6.70;;;3.17;;
82244;SDS011;71849;50.096;14.458;2023-08-06T04:22:27;6.40;;;2.85;;
82244;SDS011;71849;50.096;14.458;2023-08-06T04:24:52;6.07;;;2.90;;
82244;SDS011;71849;50.096;14.458;2023-08-06T04:27:18;5.68;;;3.13;;
82244;SDS011;71849;50.096;14.458;2023-08-06T04:29:44;6.20;;;3.08;;
82244;SDS011;71849;50.096;14.458;2023-08-06T04:32:11;7.40;;;3.20;;
82244;SDS011;71849;50.096;14.458;2023-08-06T04:34:38;6.38;;;3.22;;
82244;SDS011;71849;50.096;14.458;2023-08-06T04:37:04;7.03;;;3.40;;
82244;SDS011;71849;50.096;14.458;2023-08-06T04:39:30;7.05;;;3.63;;
82244;SDS011;71849;50.096;14.458;2023-08-06T04:41:58;6.88;;;3.75;;
82244;SDS011;71849;50.096;14.458;2023-08-06T04:44:24;7.80;;;3.63;;
82244;SDS011;71849;50.096;14.458;2023-08-06T04:46:49;7.72;;;3.70;;
82244;SDS011;71849;50.096;14.458;2023-08-06T04:49:15;7.57;;;3.92;;
82244;SDS011;71849;50.096;14.458;2023-08-06T04:51:40;6.88;;;4.00;;
82244;SDS011;71849;50.096;14.458;2023-08-06T04:54:06;8.45;;;3.95;;
82244;SDS011;71849;50.096;14.458;2023-08-06T04:56:31;7.43;;;4.10;;
82244;SDS011;71849;50.096;14.458;2023-08-06T04:58:57;9.50;;;4.28;;
82244;SDS011;71849;50.096;14.458;2023-08-06T05:01:23;7.65;;;3.75;;
82244;SDS011;71849;50.096;14.458;2023-08-06T05:03:48;8.35;;;4.57;;
82244;SDS011;71849;50.096;14.458;2023-08-06T05:06:13;8.05;;;4.32;;
82244;SDS011;71849;50.096;14.458;2023-08-06T05:08:39;8.65;;;4.85;;
82244;SDS011;71849;50.096;14.458;2023-08-06T05:11:05;8.73;;;5.00;;
82244;SDS011;71849;50.096;14.458;2023-08-06T05:13:34;9.10;;;5.03;;
82244;SDS011;71849;50.096;14.458;2023-08-06T05:15:59;9.60;;;4.60;;
82244;SDS011;71849;50.096;14.458;2023-08-06T05:18:25;8.30;;;4.93;;
82244;SDS011;71849;50.096;14.458;2023-08-06T05:20:50;9.07;;;5.20;;
82244;SDS011;71849;50.096;14.458;2023-08-06T05:23:16;9.05;;;4.30;;
82244;SDS011;71849;50.096;14.458;2023-08-06T05:25:41;7.30;;;3.92;;
82244;SDS011;71849;50.096;14.458;2023-08-06T05:28:08;7.97;;;4.32;;
82244;SDS011;71849;50.096;14.458;2023-08-06T05:30:33;7.68;;;3.80;;
82244;SDS011;71849;50.096;14.458;2023-08-06T05:32:59;7.75;;;4.22;;
82244;SDS011;71849;50.096;14.458;2023-08-06T05:35:24;6.95;;;3.60;;
82244;SDS011;71849;50.096;14.458;2023-08-06T05:37:50;6.60;;;3.70;;
82244;SDS011;71849;50.096;14.458;2023-08-06T05:40:15;7.82;;;4.63;;
82244;SDS011;71849;50.096;14.458;2023-08-06T05:42:41;7.40;;;3.83;;
82244;SDS011;71849;50.096;14.458;2023-08-06T05:45:06;7.13;;;3.72;;
82244;SDS011;71849;50.096;14.458;2023-08-06T05:47:32;7.13;;;3.53;;
82244;SDS011;71849;50.096;14.458;2023-08-06T05:49:58;8.25;;;3.55;;
82244;SDS011;71849;50.096;14.458;2023-08-06T05:52:23;7.82;;;4.05;;
82244;SDS011;71849;50.096;14.458;2023-08-06T05:54:49;7.97;;;3.33;;
82244;SDS011;71849;50.096;14.458;2023-08-06T05:57:14;6.57;;;3.38;;
82244;SDS011;71849;50.096;14.458;2023-08-06T05:59:40;6.53;;;3.33;;
82244;SDS011;71849;50.096;14.458;2023-08-06T06:02:06;6.55;;;3.75;;
82244;SDS011;71849;50.096;14.458;2023-08-06T06:04:34;7.07;;;3.80;;
82244;SDS011;71849;50.096;14.458;2023-08-06T06:06:59;6.70;;;3.30;;
82244;SDS011;71849;50.096;14.458;2023-08-06T06:09:25;6.63;;;3.63;;
82244;SDS011;71849;50.096;14.458;2023-08-06T06:11:50;8.07;;;3.70;;
82244;SDS011;71849;50.096;14.458;2023-08-06T06:14:16;9.07;;;3.90;;
82244;SDS011;71849;50.096;14.458;2023-08-06T06:16:43;8.82;;;4.32;;
82244;SDS011;71849;50.096;14.458;2023-08-06T06:19:08;8.00;;;4.50;;
82244;SDS011;71849;50.096;14.458;2023-08-06T06:21:33;7.65;;;4.25;;
82244;SDS011;71849;50.096;14.458;2023-08-06T06:23:59;9.80;;;3.80;;
82244;SDS011;71849;50.096;14.458;2023-08-06T06:26:24;7.55;;;3.92;;
82244;SDS011;71849;50.096;14.458;2023-08-06T06:28:50;8.88;;;4.13;;
82244;SDS011;71849;50.096;14.458;2023-08-06T06:31:15;6.35;;;3.45;;
82244;SDS011;71849;50.096;14.458;2023-08-06T06:33:41;6.95;;;3.85;;
82244;SDS011;71849;50.096;14.458;2023-08-06T06:36:06;6.40;;;3.00;;
82244;SDS011;71849;50.096;14.458;2023-08-06T06:38:32;7.00;;;3.60;;
82244;SDS011;71849;50.096;14.458;2023-08-06T06:40:58;7.75;;;3.92;;
82244;SDS011;71849;50.096;14.458;2023-08-06T06:43:24;6.10;;;3.00;;
82244;SDS011;71849;50.096;14.458;2023-08-06T06:45:57;6.10;;;3.08;;
82244;SDS011;71849;50.096;14.458;2023-08-06T06:48:24;5.43;;;2.70;;
82244;SDS011;71849;50.096;14.458;2023-08-06T06:50:54;6.38;;;3.00;;
82244;SDS011;71849;50.096;14.458;2023-08-06T06:53:20;5.97;;;2.88;;
82244;SDS011;71849;50.096;14.458;2023-08-06T06:55:45;5.95;;;3.03;;
82244;SDS011;71849;50.096;14.458;2023-08-06T06:58:14;7.57;;;3.33;;
82244;SDS011;71849;50.096;14.458;2023-08-06T07:00:40;5.90;;;2.92;;
82244;SDS011;71849;50.096;14.458;2023-08-06T07:03:06;11.90;;;7.77;;
82244;SDS011;71849;50.096;14.458;2023-08-06T07:05:32;7.68;;;3.67;;
82244;SDS011;71849;50.096;14.458;2023-08-06T07:07:57;12.55;;;5.90;;
82244;SDS011;71849;50.096;14.458;2023-08-06T07:10:23;9.20;;;3.95;;
82244;SDS011;71849;50.096;14.458;2023-08-06T07:12:48;7.53;;;3.47;;
82244;SDS011;71849;50.096;14.458;2023-08-06T07:15:14;6.63;;;3.35;;
82244;SDS011;71849;50.096;14.458;2023-08-06T07:17:39;6.60;;;3.40;;
82244;SDS011;71849;50.096;14.458;2023-08-06T07:20:05;7.60;;;3.53;;
82244;SDS011;71849;50.096;14.458;2023-08-06T07:22:31;5.97;;;3.28;;
82244;SDS011;71849;50.096;14.458;2023-08-06T07:24:57;7.45;;;3.60;;
82244;SDS011;71849;50.096;14.458;2023-08-06T07:27:23;6.78;;;3.40;;
82244;SDS011;71849;50.096;14.458;2023-08-06T07:29:50;6.90;;;3.60;;
82244;SDS011;71849;50.096;14.458;2023-08-06T07:32:15;6.82;;;4.22;;
82244;SDS011;71849;50.096;14.458;2023-08-06T07:34:41;6.78;;;3.92;;
82244;SDS011;71849;50.096;14.458;2023-08-06T07:37:09;7.03;;;4.07;;
82244;SDS011;71849;50.096;14.458;2023-08-06T07:39:35;10.55;;;5.30;;
82244;SDS011;71849;50.096;14.458;2023-08-06T07:42:03;8.07;;;4.13;;
82244;SDS011;71849;50.096;14.458;2023-08-06T07:44:30;9.20;;;5.15;;
82244;SDS011;71849;50.096;14.458;2023-08-06T07:46:56;9.55;;;5.63;;
82244;SDS011;71849;50.096;14.458;2023-08-06T07:49:21;10.30;;;5.43;;
82244;SDS011;71849;50.096;14.458;2023-08-06T07:51:47;8.60;;;4.97;;
82244;SDS011;71849;50.096;14.458;2023-08-06T07:54:12;8.48;;;5.05;;
82244;SDS011;71849;50.096;14.458;2023-08-06T07:56:38;11.38;;;7.45;;
82244;SDS011;71849;50.096;14.458;2023-08-06T07:59:05;9.73;;;5.88;;
82244;SDS011;71849;50.096;14.458;2023-08-06T08:01:30;8.23;;;5.13;;
82244;SDS011;71849;50.096;14.458;2023-08-06T08:03:58;9.32;;;5.55;;
82244;SDS011;71849;50.096;14.458;2023-08-06T08:06:24;9.98;;;6.15;;
82244;SDS011;71849;50.096;14.458;2023-08-06T08:08:49;12.93;;;6.57;;
82244;SDS011;71849;50.096;14.458;2023-08-06T08:11:15;8.65;;;5.30;;
82244;SDS011;71849;50.096;14.458;2023-08-06T08:13:41;9.20;;;5.43;;
82244;SDS011;71849;50.096;14.458;2023-08-06T08:16:06;9.05;;;5.53;;
82244;SDS011;71849;50.096;14.458;2023-08-06T08:18:32;8.77;;;5.18;;
82244;SDS011;71849;50.096;14.458;2023-08-06T08:20:57;8.70;;;5.10;;
82244;SDS011;71849;50.096;14.458;2023-08-06T08:23:23;8.52;;;5.43;;
82244;SDS011;71849;50.096;14.458;2023-08-06T08:25:48;10.00;;;5.85;;
82244;SDS011;71849;50.096;14.458;2023-08-06T08:28:14;8.90;;;5.47;;
82244;SDS011;71849;50.096;14.458;2023-08-06T08:30:40;11.60;;;5.78;;
82244;SDS011;71849;50.096;14.458;2023-08-06T08:33:06;9.77;;;5.95;;
82244;SDS011;71849;50.096;14.458;2023-08-06T08:35:32;9.27;;;5.68;;
82244;SDS011;71849;50.096;14.458;2023-08-06T08:37:58;9.40;;;5.63;;
82244;SDS011;71849;50.096;14.458;2023-08-06T08:40:24;11.73;;;6.10;;
82244;SDS011;71849;50.096;14.458;2023-08-06T08:42:58;10.13;;;6.50;;
82244;SDS011;71849;50.096;14.458;2023-08-06T08:45:29;8.98;;;5.15;;
82244;SDS011;71849;50.096;14.458;2023-08-06T08:47:54;9.20;;;5.70;;
82244;SDS011;71849;50.096;14.458;2023-08-06T08:50:20;9.00;;;4.80;;
82244;SDS011;71849;50.096;14.458;2023-08-06T08:52:46;8.45;;;5.28;;
82244;SDS011;71849;50.096;14.458;2023-08-06T08:55:14;7.30;;;4.60;;
82244;SDS011;71849;50.096;14.458;2023-08-06T08:57:40;7.75;;;4.15;;
82244;SDS011;71849;50.096;14.458;2023-08-06T09:00:06;6.55;;;3.50;;
82244;SDS011;71849;50.096;14.458;2023-08-06T09:02:32;7.05;;;3.47;;
82244;SDS011;71849;50.096;14.458;2023-08-06T09:04:59;5.07;;;2.78;;
82244;SDS011;71849;50.096;14.458;2023-08-06T09:07:32;5.80;;;2.80;;
82244;SDS011;71849;50.096;14.458;2023-08-06T09:10:02;5.90;;;3.35;;
82244;SDS011;71849;50.096;14.458;2023-08-06T09:12:31;6.07;;;3.03;;
82244;SDS011;71849;50.096;14.458;2023-08-06T09:14:57;5.10;;;2.90;;
82244;SDS011;71849;50.096;14.458;2023-08-06T09:17:23;5.30;;;2.70;;
82244;SDS011;71849;50.096;14.458;2023-08-06T09:19:49;7.97;;;2.95;;
82244;SDS011;71849;50.096;14.458;2023-08-06T09:22:15;6.07;;;2.72;;
82244;SDS011;71849;50.096;14.458;2023-08-06T09:24:41;7.60;;;2.88;;
82244;SDS011;71849;50.096;14.458;2023-08-06T09:27:13;5.30;;;2.80;;
82244;SDS011;71849;50.096;14.458;2023-08-06T09:29:43;5.45;;;2.80;;
82244;SDS011;71849;50.096;14.458;2023-08-06T09:32:10;5.28;;;2.45;;
82244;SDS011;71849;50.096;14.458;2023-08-06T09:34:39;5.35;;;2.53;;
82244;SDS011;71849;50.096;14.458;2023-08-06T09:37:07;5.15;;;2.55;;
82244;SDS011;71849;50.096;14.458;2023-08-06T09:39:34;5.68;;;2.45;;
82244;SDS011;71849;50.096;14.458;2023-08-06T09:42:00;5.68;;;2.70;;
82244;SDS011;71849;50.096;14.458;2023-08-06T09:44:27;6.10;;;2.83;;
82244;SDS011;71849;50.096;14.458;2023-08-06T09:47:01;5.07;;;2.55;;
82244;SDS011;71849;50.096;14.458;2023-08-06T09:52:02;6.78;;;2.90;;
82244;SDS011;71849;50.096;14.458;2023-08-06T09:54:29;5.50;;;2.70;;
82244;SDS011;71849;50.096;14.458;2023-08-06T09:56:55;6.50;;;3.10;;
82244;SDS011;71849;50.096;14.458;2023-08-06T09:59:26;6.50;;;3.47;;
82244;SDS011;71849;50.096;14.458;2023-08-06T10:04:19;6.65;;;3.20;;
82244;SDS011;71849;50.096;14.458;2023-08-06T10:06:49;7.03;;;3.13;;
82244;SDS011;71849;50.096;14.458;2023-08-06T10:11:40;5.93;;;2.97;;
82244;SDS011;71849;50.096;14.458;2023-08-06T10:14:13;6.50;;;3.53;;
82244;SDS011;71849;50.096;14.458;2023-08-06T10:16:48;5.40;;;2.60;;
82244;SDS011;71849;50.096;14.458;2023-08-06T10:19:14;6.20;;;2.97;;
82244;SDS011;71849;50.096;14.458;2023-08-06T10:21:42;5.55;;;2.88;;
82244;SDS011;71849;50.096;14.458;2023-08-06T10:27:20;5.43;;;2.67;;
82244;SDS011;71849;50.096;14.458;2023-08-06T10:29:47;4.75;;;2.42;;
82244;SDS011;71849;50.096;14.458;2023-08-06T10:32:14;5.13;;;2.20;;
82244;SDS011;71849;50.096;14.458;2023-08-06T10:34:55;6.43;;;2.50;;
82244;SDS011;71849;50.096;14.458;2023-08-06T10:37:21;4.88;;;2.50;;
82244;SDS011;71849;50.096;14.458;2023-08-06T10:39:49;4.32;;;2.25;;
82244;SDS011;71849;50.096;14.458;2023-08-06T10:42:22;5.28;;;2.80;;
82244;SDS011;71849;50.096;14.458;2023-08-06T10:47:38;4.57;;;2.30;;
82244;SDS011;71849;50.096;14.458;2023-08-06T10:50:07;5.07;;;2.50;;
82244;SDS011;71849;50.096;14.458;2023-08-06T10:52:34;4.30;;;2.30;;
82244;SDS011;71849;50.096;14.458;2023-08-06T10:54:59;4.43;;;2.22;;
82244;SDS011;71849;50.096;14.458;2023-08-06T10:57:25;4.32;;;2.53;;
82244;SDS011;71849;50.096;14.458;2023-08-06T10:59:50;5.20;;;2.22;;
82244;SDS011;71849;50.096;14.458;2023-08-06T11:02:16;4.80;;;2.28;;
82244;SDS011;71849;50.096;14.458;2023-08-06T11:04:42;5.00;;;2.22;;
82244;SDS011;71849;50.096;14.458;2023-08-06T11:07:07;5.00;;;2.00;;
82244;SDS011;71849;50.096;14.458;2023-08-06T11:09:33;6.70;;;3.65;;
82244;SDS011;71849;50.096;14.458;2023-08-06T11:11:58;4.88;;;2.35;;
82244;SDS011;71849;50.096;14.458;2023-08-06T11:14:24;4.68;;;2.10;;
82244;SDS011;71849;50.096;14.458;2023-08-06T11:16:49;4.05;;;2.03;;
82244;SDS011;71849;50.096;14.458;2023-08-06T11:19:15;4.70;;;1.90;;
82244;SDS011;71849;50.096;14.458;2023-08-06T11:21:41;4.68;;;2.00;;
82244;SDS011;71849;50.096;14.458;2023-08-06T11:24:09;4.70;;;1.77;;
82244;SDS011;71849;50.096;14.458;2023-08-06T11:26:36;4.78;;;1.85;;
82244;SDS011;71849;50.096;14.458;2023-08-06T11:29:02;4.35;;;1.80;;
82244;SDS011;71849;50.096;14.458;2023-08-06T11:31:28;4.07;;;1.70;;
82244;SDS011;71849;50.096;14.458;2023-08-06T11:33:54;3.92;;;1.80;;
82244;SDS011;71849;50.096;14.458;2023-08-06T11:36:29;3.03;;;1.45;;
82244;SDS011;71849;50.096;14.458;2023-08-06T11:39:13;3.35;;;1.90;;
82244;SDS011;71849;50.096;14.458;2023-08-06T11:41:39;4.20;;;2.00;;
82244;SDS011;71849;50.096;14.458;2023-08-06T11:44:05;4.07;;;1.80;;
82244;SDS011;71849;50.096;14.458;2023-08-06T11:46:49;3.67;;;1.60;;
82244;SDS011;71849;50.096;14.458;2023-08-06T11:49:15;4.93;;;1.65;;
82244;SDS011;71849;50.096;14.458;2023-08-06T11:51:40;3.33;;;1.70;;
82244;SDS011;71849;50.096;14.458;2023-08-06T11:54:06;4.10;;;1.73;;
82244;SDS011;71849;50.096;14.458;2023-08-06T11:56:33;4.88;;;1.80;;
82244;SDS011;71849;50.096;14.458;2023-08-06T11:59:00;3.72;;;1.60;;
82244;SDS011;71849;50.096;14.458;2023-08-06T12:01:25;4.47;;;2.10;;
82244;SDS011;71849;50.096;14.458;2023-08-06T12:03:51;6.57;;;2.00;;
82244;SDS011;71849;50.096;14.458;2023-08-06T12:06:17;4.63;;;2.20;;
82244;SDS011;71849;50.096;14.458;2023-08-06T12:08:42;7.95;;;2.35;;
82244;SDS011;71849;50.096;14.458;2023-08-06T12:11:07;5.05;;;2.00;;
82244;SDS011;71849;50.096;14.458;2023-08-06T12:13:34;5.25;;;1.85;;
82244;SDS011;71849;50.096;14.458;2023-08-06T12:15:59;4.40;;;2.45;;
82244;SDS011;71849;50.096;14.458;2023-08-06T12:18:24;5.63;;;2.47;;
82244;SDS011;71849;50.096;14.458;2023-08-06T12:20:50;4.65;;;2.20;;
82244;SDS011;71849;50.096;14.458;2023-08-06T12:23:16;5.53;;;2.00;;
82244;SDS011;71849;50.096;14.458;2023-08-06T12:25:41;5.85;;;2.38;;
82244;SDS011;71849;50.096;14.458;2023-08-06T12:28:07;5.30;;;2.05;;
82244;SDS011;71849;50.096;14.458;2023-08-06T12:30:34;4.18;;;2.00;;
82244;SDS011;71849;50.096;14.458;2023-08-06T12:32:59;7.07;;;4.38;;
82244;SDS011;71849;50.096;14.458;2023-08-06T12:35:25;3.95;;;2.10;;
82244;SDS011;71849;50.096;14.458;2023-08-06T12:37:51;5.78;;;2.10;;
82244;SDS011;71849;50.096;14.458;2023-08-06T12:40:19;5.25;;;2.10;;
82244;SDS011;71849;50.096;14.458;2023-08-06T12:42:45;6.82;;;2.70;;
82244;SDS011;71849;50.096;14.458;2023-08-06T12:45:11;5.93;;;2.50;;
82244;SDS011;71849;50.096;14.458;2023-08-06T12:47:36;4.25;;;2.30;;
82244;SDS011;71849;50.096;14.458;2023-08-06T12:50:01;6.10;;;2.85;;
82244;SDS011;71849;50.096;14.458;2023-08-06T12:52:27;4.50;;;2.20;;
82244;SDS011;71849;50.096;14.458;2023-08-06T12:54:52;6.30;;;2.47;;
82244;SDS011;71849;50.096;14.458;2023-08-06T12:57:18;4.15;;;2.05;;
82244;SDS011;71849;50.096;14.458;2023-08-06T12:59:43;5.13;;;2.80;;
82244;SDS011;71849;50.096;14.458;2023-08-06T13:02:08;5.53;;;2.67;;
82244;SDS011;71849;50.096;14.458;2023-08-06T13:04:34;4.05;;;2.30;;
82244;SDS011;71849;50.096;14.458;2023-08-06T13:06:59;4.35;;;2.30;;
82244;SDS011;71849;50.096;14.458;2023-08-06T13:09:25;5.95;;;2.40;;
82244;SDS011;71849;50.096;14.458;2023-08-06T13:11:52;6.10;;;2.58;;
82244;SDS011;71849;50.096;14.458;2023-08-06T13:14:18;4.88;;;2.40;;
82244;SDS011;71849;50.096;14.458;2023-08-06T13:16:43;6.75;;;3.13;;
82244;SDS011;71849;50.096;14.458;2023-08-06T13:19:09;5.20;;;2.70;;
82244;SDS011;71849;50.096;14.458;2023-08-06T13:21:58;4.70;;;2.55;;
82244;SDS011;71849;50.096;14.458;2023-08-06T13:24:30;5.65;;;2.50;;
82244;SDS011;71849;50.096;14.458;2023-08-06T13:26:55;4.40;;;2.15;;
82244;SDS011;71849;50.096;14.458;2023-08-06T13:29:20;4.70;;;2.33;;
82244;SDS011;71849;50.096;14.458;2023-08-06T13:31:46;4.57;;;2.33;;
82244;SDS011;71849;50.096;14.458;2023-08-06T13:34:12;5.53;;;2.40;;
82244;SDS011;71849;50.096;14.458;2023-08-06T13:36:41;4.47;;;1.98;;
82244;SDS011;71849;50.096;14.458;2023-08-06T13:39:06;7.32;;;2.92;;
82244;SDS011;71849;50.096;14.458;2023-08-06T13:41:31;5.70;;;2.15;;
82244;SDS011;71849;50.096;14.458;2023-08-06T13:43:57;3.90;;;1.73;;
82244;SDS011;71849;50.096;14.458;2023-08-06T13:46:22;5.20;;;1.73;;
82244;SDS011;71849;50.096;14.458;2023-08-06T13:48:48;4.28;;;1.77;;
82244;SDS011;71849;50.096;14.458;2023-08-06T13:51:17;4.75;;;1.77;;
82244;SDS011;71849;50.096;14.458;2023-08-06T13:53:42;5.00;;;1.92;;
82244;SDS011;71849;50.096;14.458;2023-08-06T13:56:08;3.78;;;1.85;;
82244;SDS011;71849;50.096;14.458;2023-08-06T13:58:37;3.60;;;1.92;;
82244;SDS011;71849;50.096;14.458;2023-08-06T14:01:03;4.43;;;1.88;;
82244;SDS011;71849;50.096;14.458;2023-08-06T14:03:29;4.20;;;1.70;;
82244;SDS011;71849;50.096;14.458;2023-08-06T14:05:55;2.85;;;1.65;;
82244;SDS011;71849;50.096;14.458;2023-08-06T14:08:21;4.18;;;1.88;;
82244;SDS011;71849;50.096;14.458;2023-08-06T14:10:48;4.60;;;2.25;;
82244;SDS011;71849;50.096;14.458;2023-08-06T14:13:14;4.60;;;1.77;;
82244;SDS011;71849;50.096;14.458;2023-08-06T14:15:39;3.45;;;1.80;;
82244;SDS011;71849;50.096;14.458;2023-08-06T14:18:05;3.50;;;1.83;;
82244;SDS011;71849;50.096;14.458;2023-08-06T14:20:33;5.07;;;1.90;;
82244;SDS011;71849;50.096;14.458;2023-08-06T14:22:59;5.05;;;1.90;;
82244;SDS011;71849;50.096;14.458;2023-08-06T14:25:24;4.60;;;1.90;;
82244;SDS011;71849;50.096;14.458;2023-08-06T14:27:49;4.90;;;2.00;;
82244;SDS011;71849;50.096;14.458;2023-08-06T14:30:15;4.18;;;1.90;;
82244;SDS011;71849;50.096;14.458;2023-08-06T14:32:40;3.60;;;1.80;;
82244;SDS011;71849;50.096;14.458;2023-08-06T14:35:06;5.60;;;2.10;;
82244;SDS011;71849;50.096;14.458;2023-08-06T14:37:32;5.15;;;2.00;;
82244;SDS011;71849;50.096;14.458;2023-08-06T14:39:57;4.05;;;1.83;;
82244;SDS011;71849;50.096;14.458;2023-08-06T14:42:22;4.25;;;1.90;;
82244;SDS011;71849;50.096;14.458;2023-08-06T14:44:48;4.65;;;1.67;;
82244;SDS011;71849;50.096;14.458;2023-08-06T14:47:13;5.53;;;1.92;;
82244;SDS011;71849;50.096;14.458;2023-08-06T14:49:39;5.10;;;2.20;;
82244;SDS011;71849;50.096;14.458;2023-08-06T14:52:05;4.88;;;2.10;;
82244;SDS011;71849;50.096;14.458;2023-08-06T14:54:33;4.95;;;2.80;;
82244;SDS011;71849;50.096;14.458;2023-08-06T14:56:59;4.60;;;2.47;;
82244;SDS011;71849;50.096;14.458;2023-08-06T14:59:24;6.70;;;2.20;;